createdAt,value
2022-10-03T00:02:43.055Z,2.72
2022-10-03T00:05:57.296Z,3.28
2022-10-03T00:08:48.248Z,3.05
2022-10-03T00:11:20.609Z,2.80
2022-10-03T00:14:03.543Z,2.50
2022-10-03T00:16:33.550Z,3.00
2022-10-03T00:19:03.642Z,3.53
2022-10-03T00:21:50.168Z,3.30
2022-10-03T00:24:23.953Z,2.47
2022-10-03T00:27:00.468Z,2.75
2022-10-03T00:29:46.336Z,2.90
2022-10-03T00:32:46.406Z,3.13
2022-10-03T00:35:33.961Z,2.83
2022-10-03T00:38:25.617Z,3.10
2022-10-03T00:41:13.492Z,2.60
2022-10-03T00:43:55.370Z,3.53
2022-10-03T00:46:40.546Z,3.55
2022-10-03T00:49:16.340Z,2.85
2022-10-03T00:52:13.655Z,2.38
2022-10-03T00:55:13.755Z,2.72
2022-10-03T00:58:22.214Z,3.42
2022-10-03T01:00:57.898Z,2.47
2022-10-03T01:03:45.104Z,2.88
2022-10-03T01:06:45.830Z,3.05
2022-10-03T01:09:34.595Z,3.40
2022-10-03T01:12:21.090Z,3.15
2022-10-03T01:15:18.021Z,2.30
2022-10-03T01:18:05.286Z,2.90
2022-10-03T01:21:13.732Z,2.80
2022-10-03T01:24:18.570Z,2.60
2022-10-03T01:26:48.023Z,3.13
2022-10-03T01:29:55.156Z,3.35
2022-10-03T01:32:33.552Z,2.50
2022-10-03T01:35:07.688Z,2.90
2022-10-03T01:37:54.092Z,2.58
2022-10-03T01:40:52.376Z,4.38
2022-10-03T01:43:25.010Z,2.65
2022-10-03T01:46:04.441Z,2.72
2022-10-03T01:48:47.061Z,3.88
2022-10-03T01:51:21.568Z,2.85
2022-10-03T01:54:01.058Z,2.97
2022-10-03T01:56:37.585Z,3.00
2022-10-03T01:59:47.711Z,2.75
2022-10-03T02:02:21.746Z,3.75
2022-10-03T02:04:52.811Z,3.03
2022-10-03T02:07:48.787Z,3.35
2022-10-03T02:10:52.575Z,2.83
2022-10-03T02:13:38.529Z,3.15
2022-10-03T02:16:31.206Z,3.30
2022-10-03T02:19:16.110Z,3.28
2022-10-03T02:21:52.187Z,3.00
2022-10-03T02:24:37.413Z,2.97
2022-10-03T02:27:34.253Z,3.95
2022-10-03T02:30:19.844Z,3.42
2022-10-03T02:33:18.041Z,3.72
2022-10-03T02:35:56.458Z,3.05
2022-10-03T02:38:53.934Z,3.28
2022-10-03T02:41:41.582Z,3.28
2022-10-03T02:44:08.847Z,3.53
2022-10-03T02:47:05.790Z,3.45
2022-10-03T02:49:47.855Z,4.13
2022-10-03T02:52:26.839Z,3.45
2022-10-03T02:54:57.169Z,3.65
2022-10-03T02:57:47.035Z,3.85
2022-10-03T03:00:20.865Z,3.95
2022-10-03T03:03:35.694Z,3.80
2022-10-03T03:09:29.409Z,4.30
2022-10-03T03:12:25.198Z,4.75
2022-10-03T03:15:16.709Z,3.42
2022-10-03T03:17:56.922Z,3.70
2022-10-03T03:20:52.264Z,4.10
2022-10-03T03:23:47.103Z,3.92
2022-10-03T03:26:16.786Z,4.65
2022-10-03T03:28:55.597Z,3.63
2022-10-03T03:32:02.096Z,5.50
2022-10-03T03:34:43.713Z,4.38
2022-10-03T03:37:20.948Z,5.10
2022-10-03T03:40:17.754Z,4.40
2022-10-03T03:42:53.673Z,4.72
2022-10-03T03:45:58.106Z,4.18
2022-10-03T03:51:38.923Z,3.90
2022-10-03T03:54:31.161Z,4.53
2022-10-03T03:57:28.038Z,4.40
2022-10-03T04:00:18.350Z,3.83
2022-10-03T04:03:27.299Z,4.32
2022-10-03T04:05:57.144Z,3.97
2022-10-03T04:08:38.886Z,4.15
2022-10-03T04:11:33.653Z,4.30
2022-10-03T04:14:05.035Z,4.13
2022-10-03T04:17:19.442Z,4.07
2022-10-03T04:20:09.754Z,4.20
2022-10-03T04:22:51.493Z,4.13
2022-10-03T04:25:47.885Z,4.75
2022-10-03T04:28:47.376Z,4.85
2022-10-03T04:31:41.650Z,4.38
2022-10-03T04:34:42.565Z,5.57
2022-10-03T04:37:12.354Z,4.53
2022-10-03T04:39:50.888Z,4.55
2022-10-03T04:42:36.224Z,4.97
2022-10-03T04:45:10.872Z,4.55
2022-10-03T04:47:58.497Z,5.68
2022-10-03T04:50:50.245Z,5.50
2022-10-03T04:53:24.198Z,4.65
2022-10-03T04:56:12.710Z,5.93
2022-10-03T04:58:47.456Z,5.00
2022-10-03T05:01:43.130Z,5.50
2022-10-03T05:04:29.811Z,4.63
2022-10-03T05:07:08.252Z,4.75
2022-10-03T05:09:50.312Z,4.90
2022-10-03T05:12:35.804Z,4.80
2022-10-03T05:15:13.681Z,4.72
2022-10-03T05:17:58.778Z,5.25
2022-10-03T05:20:46.906Z,5.45
2022-10-03T05:23:43.298Z,4.90
2022-10-03T05:26:44.995Z,4.53
2022-10-03T05:29:33.063Z,4.50
2022-10-03T05:32:18.364Z,6.40
2022-10-03T05:34:57.101Z,4.25
2022-10-03T05:37:35.833Z,5.53
2022-10-03T05:40:24.526Z,5.07
2022-10-03T05:42:52.431Z,5.78
2022-10-03T05:45:31.530Z,6.32
2022-10-03T05:48:23.152Z,7.90
2022-10-03T05:51:20.207Z,25.10
2022-10-03T05:53:58.245Z,6.50
2022-10-03T05:57:05.592Z,5.88
2022-10-03T05:59:52.834Z,6.03
2022-10-03T06:02:41.537Z,9.38
2022-10-03T06:05:37.625Z,5.55
2022-10-03T06:08:14.396Z,5.93
2022-10-03T06:11:08.018Z,5.30
2022-10-03T06:14:00.936Z,6.18
2022-10-03T06:16:30.142Z,5.47
2022-10-03T06:19:29.070Z,7.65
2022-10-03T06:22:33.261Z,6.10
2022-10-03T06:25:18.763Z,9.60
2022-10-03T06:28:23.307Z,6.88
2022-10-03T06:31:01.951Z,7.13
2022-10-03T06:33:34.964Z,5.72
2022-10-03T06:36:38.932Z,6.22
2022-10-03T06:39:44.519Z,6.60
2022-10-03T06:42:12.160Z,6.07
2022-10-03T06:45:10.442Z,6.38
2022-10-03T06:47:59.062Z,7.00
2022-10-03T06:50:49.843Z,7.07
2022-10-03T06:53:31.573Z,4.75
2022-10-03T06:56:04.763Z,6.25
2022-10-03T06:59:05.357Z,6.65
2022-10-03T07:02:03.003Z,5.35
2022-10-03T07:05:06.543Z,5.47
2022-10-03T07:07:39.378Z,4.97
2022-10-03T07:10:38.881Z,5.73
2022-10-03T07:13:39.217Z,5.80
2022-10-03T07:16:27.842Z,5.88
2022-10-03T07:19:14.242Z,4.75
2022-10-03T07:21:43.796Z,5.40
2022-10-03T07:24:41.394Z,5.65
2022-10-03T07:27:23.574Z,5.45
2022-10-03T07:30:30.110Z,5.93
2022-10-03T07:32:56.873Z,5.78
2022-10-03T07:35:54.608Z,6.97
2022-10-03T07:38:52.800Z,6.20
2022-10-03T07:42:00.077Z,7.45
2022-10-03T07:45:03.977Z,6.15
2022-10-03T07:47:36.648Z,7.35
2022-10-03T07:50:37.272Z,5.90
2022-10-03T07:53:31.884Z,6.40
2022-10-03T07:56:20.799Z,5.68
2022-10-03T07:58:54.162Z,6.13
2022-10-03T08:01:42.805Z,7.00
2022-10-03T08:04:18.714Z,6.18
2022-10-03T08:07:23.386Z,6.78
2022-10-03T08:10:09.146Z,6.03
2022-10-03T08:12:54.497Z,5.03
2022-10-03T08:15:35.528Z,5.72
2022-10-03T08:18:24.088Z,6.35
2022-10-03T08:21:09.836Z,6.28
2022-10-03T08:23:48.780Z,5.28
2022-10-03T08:26:36.003Z,4.53
2022-10-03T08:29:12.721Z,5.03
2022-10-03T08:32:08.743Z,5.03
2022-10-03T08:35:07.750Z,5.50
2022-10-03T08:37:56.153Z,4.80
2022-10-03T08:41:00.332Z,4.18
2022-10-03T08:44:04.731Z,4.40
2022-10-03T08:47:00.928Z,4.15
2022-10-03T08:49:35.025Z,4.53
2022-10-03T08:52:10.797Z,4.70
2022-10-03T08:55:08.207Z,5.65
2022-10-03T08:57:59.230Z,4.40
2022-10-03T09:01:16.112Z,3.42
2022-10-03T09:04:05.216Z,4.43
2022-10-03T09:07:17.699Z,4.05
2022-10-03T09:09:57.028Z,3.35
2022-10-03T09:12:42.806Z,3.30
2022-10-03T09:15:47.999Z,3.13
2022-10-03T09:18:41.613Z,3.00
2022-10-03T09:21:33.745Z,2.97
2022-10-03T09:24:35.107Z,3.40
2022-10-03T09:27:04.656Z,3.92
2022-10-03T09:29:49.077Z,3.00
2022-10-03T09:32:44.701Z,4.15
2022-10-03T09:35:47.191Z,2.75
2022-10-03T09:38:51.631Z,2.45
2022-10-03T09:41:43.648Z,3.13
2022-10-03T09:44:23.330Z,2.20
2022-10-03T09:47:23.488Z,2.10
2022-10-03T09:50:19.327Z,1.80
2022-10-03T09:53:24.622Z,1.35
2022-10-03T09:56:13.963Z,2.40
2022-10-03T09:59:17.071Z,2.30
2022-10-03T10:01:47.477Z,2.38
2022-10-03T10:04:55.414Z,2.15
2022-10-03T10:07:41.250Z,2.30
2022-10-03T10:10:20.009Z,1.95
2022-10-03T10:13:24.317Z,2.28
2022-10-03T10:16:25.188Z,1.90
2022-10-03T10:19:29.414Z,2.00
2022-10-03T10:22:32.874Z,2.10
2022-10-03T10:25:09.276Z,1.50
2022-10-03T10:28:20.050Z,2.08
2022-10-03T10:31:21.940Z,1.33
2022-10-03T10:34:10.744Z,0.88
2022-10-03T10:36:56.026Z,1.50
2022-10-03T10:39:44.040Z,2.03
2022-10-03T10:42:25.881Z,1.30
2022-10-03T10:45:14.025Z,1.50
2022-10-03T10:47:58.135Z,2.00
2022-10-03T10:50:27.629Z,1.70
2022-10-03T10:53:09.436Z,0.90
2022-10-03T10:55:55.080Z,2.17
2022-10-03T10:58:58.098Z,0.70
2022-10-03T11:02:02.509Z,0.95
2022-10-03T11:04:59.610Z,0.80
2022-10-03T11:08:04.544Z,0.57
2022-10-03T11:10:35.629Z,0.70
2022-10-03T11:13:52.697Z,1.35
2022-10-03T11:16:45.228Z,1.10
2022-10-03T11:19:42.203Z,0.90
2022-10-03T11:22:59.904Z,2.00
2022-10-03T11:26:00.118Z,1.35
2022-10-03T11:29:04.829Z,1.55
2022-10-03T11:32:09.612Z,0.93
2022-10-03T11:35:07.039Z,0.98
2022-10-03T11:37:58.625Z,1.17
2022-10-03T11:40:35.593Z,1.23
2022-10-03T11:43:36.296Z,1.05
2022-10-03T11:46:23.822Z,0.93
2022-10-03T11:49:44.591Z,0.50
2022-10-03T11:52:34.032Z,0.80
2022-10-03T11:55:31.343Z,1.25
2022-10-03T11:58:24.331Z,0.80
2022-10-03T12:01:20.089Z,1.23
2022-10-03T12:04:09.668Z,1.00
2022-10-03T12:07:17.359Z,0.75
2022-10-03T12:10:18.292Z,1.60
2022-10-03T12:12:56.010Z,0.98
2022-10-03T12:15:54.211Z,0.90
2022-10-03T12:18:53.882Z,0.82
2022-10-03T12:21:29.439Z,0.95
2022-10-03T12:24:05.950Z,1.10
2022-10-03T12:26:43.767Z,0.75
2022-10-03T12:29:13.281Z,0.80
2022-10-03T12:32:01.233Z,1.52
2022-10-03T12:34:50.034Z,1.02
2022-10-03T12:37:28.534Z,1.23
2022-10-03T12:40:14.018Z,0.82
2022-10-03T12:42:49.631Z,0.63
2022-10-03T12:45:47.971Z,1.23
2022-10-03T12:48:32.485Z,1.17
2022-10-03T12:51:13.300Z,0.90
2022-10-03T12:54:17.187Z,0.88
2022-10-03T12:56:54.014Z,0.82
2022-10-03T12:59:46.992Z,1.17
2022-10-03T13:02:33.450Z,1.02
2022-10-03T13:05:15.522Z,0.52
2022-10-03T13:08:09.926Z,1.10
2022-10-03T13:10:49.314Z,0.93
2022-10-03T13:13:50.263Z,0.98
2022-10-03T13:16:24.537Z,1.42
2022-10-03T13:19:17.534Z,0.90
2022-10-03T13:22:03.579Z,0.50
2022-10-03T13:24:46.754Z,0.77
2022-10-03T13:27:48.787Z,1.47
2022-10-03T13:30:24.466Z,0.90
2022-10-03T13:33:02.985Z,0.77
2022-10-03T13:36:05.392Z,1.23
2022-10-03T13:38:46.995Z,1.40
2022-10-03T13:41:51.205Z,0.70
2022-10-03T13:44:23.896Z,0.98
2022-10-03T13:47:11.446Z,0.88
2022-10-03T13:49:55.024Z,1.00
2022-10-03T13:52:24.514Z,0.90
2022-10-03T13:55:13.131Z,1.77
2022-10-03T13:57:49.990Z,0.90
2022-10-03T14:00:20.856Z,1.13
2022-10-03T14:03:09.967Z,0.80
2022-10-03T14:05:39.602Z,0.90
2022-10-03T14:08:12.162Z,1.00
2022-10-03T14:10:58.835Z,0.95
2022-10-03T14:13:58.385Z,0.80
2022-10-03T14:16:28.189Z,1.10
2022-10-03T14:19:20.458Z,1.10
2022-10-03T14:22:14.252Z,0.95
2022-10-03T14:24:56.335Z,1.10
2022-10-03T14:27:37.144Z,1.40
2022-10-03T14:30:09.962Z,0.73
2022-10-03T14:32:48.741Z,0.83
2022-10-03T14:35:33.300Z,0.80
2022-10-03T14:38:13.448Z,0.73
2022-10-03T14:40:49.642Z,1.20
2022-10-03T14:43:49.629Z,1.40
2022-10-03T14:46:20.582Z,1.25
2022-10-03T14:48:51.884Z,1.35
2022-10-03T14:51:26.678Z,1.67
2022-10-03T14:54:02.665Z,1.42
2022-10-03T14:56:34.662Z,1.45
2022-10-03T14:59:12.131Z,1.63
2022-10-03T15:01:49.252Z,1.33
2022-10-03T15:04:28.075Z,1.85
2022-10-03T15:06:57.277Z,1.65
2022-10-03T15:09:39.945Z,1.40
2022-10-03T15:12:24.766Z,2.05
2022-10-03T15:15:16.599Z,1.67
2022-10-03T15:17:51.213Z,1.20
2022-10-03T15:20:51.738Z,1.20
2022-10-03T15:23:33.908Z,1.58
2022-10-03T15:26:02.067Z,0.77
2022-10-03T15:28:40.014Z,1.17
2022-10-03T15:31:37.595Z,0.85
2022-10-03T15:34:13.058Z,0.98
2022-10-03T15:36:43.890Z,1.08
2022-10-03T15:39:33.131Z,1.63
2022-10-03T15:42:07.805Z,1.50
2022-10-03T15:44:41.265Z,1.70
2022-10-03T15:47:27.132Z,1.50
2022-10-03T15:50:07.034Z,1.38
2022-10-03T15:53:34.647Z,1.05
2022-10-03T15:56:46.146Z,1.45
2022-10-03T15:59:23.417Z,2.10
2022-10-03T16:01:53.781Z,1.50
2022-10-03T16:04:30.053Z,1.48
2022-10-03T16:06:59.949Z,0.88
2022-10-03T16:09:44.468Z,1.33
2022-10-03T16:12:20.084Z,1.70
2022-10-03T16:14:54.149Z,1.23
2022-10-03T16:17:39.439Z,1.50
2022-10-03T16:20:22.358Z,1.38
2022-10-03T16:22:56.317Z,0.80
2022-10-03T16:25:39.104Z,1.38
2022-10-03T16:28:11.785Z,2.08
2022-10-03T16:30:50.206Z,1.40
2022-10-03T16:33:26.201Z,1.42
2022-10-03T16:36:05.334Z,1.60
2022-10-03T16:38:41.043Z,1.35
2022-10-03T16:41:10.569Z,1.35
2022-10-03T16:43:37.596Z,1.48
2022-10-03T16:46:19.233Z,1.13
2022-10-03T16:49:04.786Z,1.50
2022-10-03T16:51:59.157Z,1.92
2022-10-03T16:54:28.340Z,1.17
2022-10-03T16:56:59.669Z,1.20
2022-10-03T16:59:29.460Z,1.65
2022-10-03T17:02:03.591Z,1.42
2022-10-03T17:04:39.304Z,1.45
2022-10-03T17:07:12.620Z,0.98
2022-10-03T17:09:45.987Z,1.83
2022-10-03T17:12:39.117Z,1.00
2022-10-03T17:15:23.478Z,1.20
2022-10-03T17:18:15.830Z,1.67
2022-10-03T17:20:49.805Z,1.02
2022-10-03T17:23:27.371Z,1.20
2022-10-03T17:26:21.733Z,1.60
2022-10-03T17:29:01.922Z,1.85
2022-10-03T17:31:38.011Z,2.20
2022-10-03T17:34:37.668Z,1.40
2022-10-03T17:37:13.436Z,2.08
2022-10-03T17:39:56.209Z,2.63
2022-10-03T17:42:38.598Z,1.67
2022-10-03T17:45:33.667Z,1.85
2022-10-03T17:48:18.088Z,2.22
2022-10-03T17:50:57.202Z,2.53
2022-10-03T17:53:31.361Z,2.38
2022-10-03T17:56:21.095Z,2.17
2022-10-03T17:58:55.794Z,2.30
2022-10-03T18:01:34.243Z,2.92
2022-10-03T18:04:10.715Z,2.13
2022-10-03T18:06:45.358Z,2.58
2022-10-03T18:09:14.893Z,2.30
2022-10-03T18:11:45.023Z,2.67
2022-10-03T18:14:47.627Z,3.13
2022-10-03T18:17:23.113Z,2.55
2022-10-03T18:20:14.307Z,2.22
2022-10-03T18:22:49.394Z,2.60
2022-10-03T18:26:18.626Z,2.80
2022-10-03T18:29:04.359Z,3.33
2022-10-03T18:31:44.080Z,2.50
2022-10-03T18:34:30.622Z,3.13
2022-10-03T18:37:16.010Z,2.55
2022-10-03T18:39:44.429Z,3.50
2022-10-03T18:42:12.068Z,3.13
2022-10-03T18:44:44.500Z,2.92
2022-10-03T18:47:14.514Z,2.67
2022-10-03T18:49:50.522Z,2.88
2022-10-03T18:52:22.249Z,2.80
2022-10-03T18:55:10.612Z,3.60
2022-10-03T18:57:47.986Z,3.60
2022-10-03T19:00:26.654Z,2.97
2022-10-03T19:03:11.946Z,2.70
2022-10-03T19:05:57.130Z,3.33
2022-10-03T19:08:24.203Z,3.70
2022-10-03T19:10:53.874Z,2.78
2022-10-03T19:13:30.027Z,3.28
2022-10-03T19:16:24.950Z,2.78
2022-10-03T19:19:28.475Z,4.25
2022-10-03T19:22:00.682Z,3.13
2022-10-03T19:24:53.796Z,3.33
2022-10-03T19:27:42.021Z,3.25
2022-10-03T19:30:12.378Z,3.85
2022-10-03T19:32:59.206Z,4.43
2022-10-03T19:35:27.271Z,3.58
2022-10-03T19:38:01.751Z,4.00
2022-10-03T19:40:50.011Z,3.08
2022-10-03T19:43:40.197Z,3.65
2022-10-03T19:46:38.387Z,3.78
2022-10-03T19:49:42.464Z,3.78
2022-10-03T19:52:21.297Z,3.40
2022-10-03T19:54:59.258Z,3.88
2022-10-03T19:57:56.665Z,3.67
2022-10-03T20:00:26.982Z,4.82
2022-10-03T20:03:10.883Z,3.97
2022-10-03T20:08:44.464Z,4.07
2022-10-03T20:11:40.813Z,3.78
2022-10-03T20:14:38.297Z,3.78
2022-10-03T20:17:28.303Z,3.63
2022-10-03T20:20:02.389Z,3.72
2022-10-03T20:22:46.607Z,3.80
2022-10-03T20:25:33.173Z,3.85
2022-10-03T20:28:04.646Z,4.05
2022-10-03T20:30:45.799Z,3.55
2022-10-03T20:33:29.801Z,3.50
2022-10-03T20:38:56.318Z,3.88
2022-10-03T20:41:36.569Z,3.83
2022-10-03T20:44:38.657Z,4.55
2022-10-03T20:47:07.241Z,4.53
2022-10-03T20:49:48.556Z,4.55
2022-10-03T20:52:21.452Z,4.38
2022-10-03T20:54:51.803Z,5.13
2022-10-03T20:57:23.445Z,3.88
2022-10-03T21:00:09.597Z,4.00
2022-10-03T21:02:46.479Z,5.00
2022-10-03T21:05:22.784Z,4.07
2022-10-03T21:08:00.308Z,4.63
2022-10-03T21:11:02.142Z,4.43
2022-10-03T21:13:41.616Z,3.60
2022-10-03T21:16:21.822Z,4.35
2022-10-03T21:18:53.285Z,6.07
2022-10-03T21:21:43.448Z,3.80
2022-10-03T21:24:31.649Z,3.72
2022-10-03T21:27:13.282Z,4.57
2022-10-03T21:29:53.240Z,4.07
2022-10-03T21:32:53.051Z,3.72
2022-10-03T21:35:22.411Z,3.90
2022-10-03T21:38:16.980Z,3.97
2022-10-03T21:41:05.537Z,4.18
2022-10-03T21:44:14.853Z,4.72
2022-10-03T21:46:55.938Z,4.32
2022-10-03T21:49:54.353Z,4.65
2022-10-03T21:52:42.555Z,3.90
2022-10-03T21:55:33.640Z,4.78
2022-10-03T21:58:29.269Z,4.07
2022-10-03T22:01:02.126Z,4.45
2022-10-03T22:03:54.818Z,5.00
2022-10-03T22:06:32.077Z,4.13
2022-10-03T22:09:04.546Z,4.30
2022-10-03T22:11:59.678Z,3.72
2022-10-03T22:15:03.111Z,4.43
2022-10-03T22:17:59.303Z,5.38
2022-10-03T22:20:30.204Z,4.50
2022-10-03T22:23:16.264Z,4.55
2022-10-03T22:26:08.534Z,4.13
2022-10-03T22:29:04.874Z,4.80
2022-10-03T22:31:45.505Z,4.93
2022-10-03T22:34:50.010Z,4.18
2022-10-03T22:37:17.198Z,4.68
2022-10-03T22:39:44.426Z,4.60
2022-10-03T22:42:14.652Z,5.43
2022-10-03T22:44:46.843Z,5.20
2022-10-03T22:47:36.269Z,4.85
2022-10-03T22:50:11.621Z,4.63
2022-10-03T22:52:42.140Z,4.10
2022-10-03T22:55:13.946Z,4.03
2022-10-03T22:57:45.509Z,4.50
2022-10-03T23:00:16.551Z,3.72
2022-10-03T23:03:16.077Z,4.38
2022-10-03T23:06:10.713Z,4.00
2022-10-03T23:08:56.170Z,3.35
2022-10-03T23:11:27.760Z,3.90
2022-10-03T23:13:57.760Z,3.88
2022-10-03T23:16:36.769Z,3.97
2022-10-03T23:19:43.592Z,4.13
2022-10-03T23:22:17.589Z,5.10
2022-10-03T23:24:47.571Z,4.63
2022-10-03T23:27:33.426Z,3.72
2022-10-03T23:30:12.062Z,4.20
2022-10-03T23:32:47.695Z,3.88
2022-10-03T23:35:42.761Z,4.38
2022-10-03T23:38:36.068Z,4.82
2022-10-03T23:41:12.601Z,4.43
2022-10-03T23:43:43.370Z,4.57
2022-10-03T23:46:18.644Z,4.47
2022-10-03T23:49:01.227Z,4.00
2022-10-03T23:51:33.490Z,4.95
2022-10-03T23:54:05.553Z,4.72
2022-10-03T23:56:42.335Z,4.38
2022-10-03T23:59:12.140Z,4.03
